createdAt,value
2019-05-19T00:00:46.923Z,11.83
2019-05-19T00:06:07.437Z,14.23
2019-05-19T00:22:24.036Z,13.97
2019-05-19T00:33:19.194Z,12.47
2019-05-19T00:44:09.947Z,17.00
2019-05-19T00:49:40.582Z,13.67
2019-05-19T00:54:48.616Z,12.67
2019-05-19T01:22:11.130Z,11.43
2019-05-19T01:27:30.416Z,13.23
2019-05-19T01:32:46.092Z,11.70
2019-05-19T01:38:04.984Z,12.83
2019-05-19T01:43:26.832Z,11.23
2019-05-19T01:48:47.344Z,14.63
2019-05-19T01:54:07.346Z,13.27
2019-05-19T02:10:22.101Z,12.03
2019-05-19T02:15:40.871Z,11.00
2019-05-19T02:21:04.152Z,13.37
2019-05-19T02:26:23.647Z,12.50
2019-05-19T02:31:42.623Z,12.53
2019-05-19T02:37:01.889Z,13.97
2019-05-19T02:42:22.930Z,11.57
2019-05-19T02:58:42.217Z,16.30
2019-05-19T03:09:32.328Z,12.03
2019-05-19T03:14:50.591Z,17.13
2019-05-19T03:20:09.563Z,17.37
2019-05-19T03:25:29.775Z,11.23
2019-05-19T03:47:16.417Z,17.40
2019-05-19T03:52:35.889Z,13.40
2019-05-19T03:57:55.896Z,17.63
2019-05-19T04:03:14.373Z,24.40
2019-05-19T04:08:34.466Z,22.37
2019-05-19T04:13:56.982Z,19.27
2019-05-19T04:19:16.721Z,29.77
2019-05-19T04:24:36.925Z,35.27
2019-05-19T04:30:00.006Z,38.70
2019-05-19T04:35:21.908Z,47.70
2019-05-19T04:40:41.754Z,47.47
2019-05-19T05:02:29.200Z,58.63
2019-05-19T05:07:48.892Z,39.47
2019-05-19T05:18:40.168Z,65.63
2019-05-19T05:23:59.651Z,55.50
2019-05-19T05:29:19.445Z,72.97
2019-05-19T05:56:40.929Z,64.67
2019-05-19T06:02:00.494Z,65.60
2019-05-19T06:18:21.416Z,64.07
2019-05-19T06:23:39.878Z,48.20
2019-05-19T06:34:29.099Z,50.60
2019-05-19T06:39:52.172Z,53.50
2019-05-19T06:45:08.880Z,56.53
2019-05-19T06:55:59.858Z,48.20
2019-05-19T07:01:19.362Z,49.97
2019-05-19T07:23:06.185Z,36.70
2019-05-19T07:28:25.379Z,34.87
2019-05-19T07:33:45.163Z,29.43
2019-05-19T07:38:57.557Z,31.60
2019-05-19T07:44:10.772Z,28.50
2019-05-19T07:49:32.060Z,28.43
2019-05-19T07:54:45.965Z,27.43
2019-05-19T08:00:05.001Z,28.47
2019-05-19T08:05:22.308Z,34.83
2019-05-19T08:10:43.876Z,35.07
2019-05-19T08:21:31.898Z,34.80
2019-05-19T08:26:51.867Z,35.47
2019-05-19T08:43:11.333Z,41.07
2019-05-19T08:54:13.840Z,41.70
2019-05-19T08:59:21.061Z,38.07
2019-05-19T09:04:43.631Z,34.97
2019-05-19T09:21:02.066Z,28.83
2019-05-19T09:37:22.756Z,34.53
2019-05-19T09:53:34.889Z,27.85
2019-05-19T10:04:24.477Z,28.92
2019-05-19T10:09:45.501Z,27.80
2019-05-19T10:15:13.011Z,30.70
2019-05-19T10:20:30.930Z,27.32
2019-05-19T10:25:49.086Z,25.82
2019-05-19T10:31:12.470Z,28.90
2019-05-19T10:36:32.164Z,27.93
2019-05-19T10:47:20.361Z,24.63
2019-05-19T10:52:40.152Z,26.15
2019-05-19T10:58:00.160Z,26.00
2019-05-19T11:03:19.861Z,24.45
2019-05-19T11:08:39.855Z,20.35
2019-05-19T11:24:59.621Z,14.28
2019-05-19T11:35:48.842Z,14.45
2019-05-19T12:08:39.199Z,9.00
2019-05-19T12:13:59.037Z,8.13
2019-05-19T12:19:20.261Z,9.28
2019-05-19T12:24:38.935Z,7.72
2019-05-19T12:35:25.485Z,7.78
2019-05-19T12:40:45.385Z,7.30
2019-05-19T12:46:13.650Z,6.22
2019-05-19T12:51:26.791Z,5.97
2019-05-19T12:56:47.668Z,4.80
2019-05-19T13:02:08.468Z,6.55
2019-05-19T13:07:28.464Z,6.22
2019-05-19T13:12:48.160Z,5.47
2019-05-19T13:18:08.163Z,5.65
2019-05-19T13:23:28.470Z,4.95
2019-05-19T13:28:50.214Z,4.90
2019-05-19T13:39:38.281Z,4.80
2019-05-19T13:44:56.672Z,4.78
2019-05-19T13:50:24.640Z,4.53
2019-05-19T14:01:27.650Z,4.47
2019-05-19T14:12:04.028Z,4.45
2019-05-19T14:17:23.819Z,4.12
2019-05-19T14:22:43.510Z,4.60
2019-05-19T14:28:06.381Z,3.90
2019-05-19T14:33:20.812Z,4.35
2019-05-19T14:38:39.218Z,3.80
2019-05-19T14:43:59.115Z,4.45
2019-05-19T14:49:23.014Z,4.20
2019-05-19T15:05:41.695Z,4.30
2019-05-19T15:11:01.458Z,4.50
2019-05-19T15:32:49.313Z,4.42
2019-05-19T15:38:08.799Z,5.33
2019-05-19T15:43:29.110Z,3.92
2019-05-19T16:05:19.531Z,5.00
2019-05-19T16:16:07.521Z,5.30
2019-05-19T16:21:26.701Z,5.15
2019-05-19T16:37:47.702Z,8.40
2019-05-19T16:43:06.482Z,10.13
2019-05-19T16:48:26.169Z,8.85
2019-05-19T16:53:44.635Z,8.18
2019-05-19T17:26:30.213Z,6.37
2019-05-19T17:31:49.702Z,7.62
2019-05-19T17:37:09.408Z,8.75
2019-05-19T17:48:10.027Z,8.83
2019-05-19T17:53:22.207Z,9.33
2019-05-19T17:58:41.700Z,10.55
2019-05-19T18:31:31.232Z,12.67
2019-05-19T18:47:51.140Z,11.37
2019-05-19T18:58:39.912Z,9.63
2019-05-19T19:03:58.819Z,6.10
2019-05-19T19:09:16.980Z,5.67
2019-05-19T19:14:36.191Z,5.47
2019-05-19T19:30:52.862Z,5.80
2019-05-19T19:36:13.371Z,5.63
2019-05-19T20:03:24.278Z,4.47
2019-05-19T20:08:48.037Z,1.90
2019-05-19T20:14:06.756Z,2.20
2019-05-19T20:19:26.428Z,4.23
2019-05-19T20:24:49.342Z,3.50
2019-05-19T20:30:07.409Z,3.10
2019-05-19T20:35:26.882Z,2.80
2019-05-19T20:40:45.651Z,3.50
2019-05-19T20:46:04.322Z,3.20
2019-05-19T20:56:51.644Z,4.20
2019-05-19T21:07:44.915Z,3.60
2019-05-19T21:12:49.939Z,4.20
2019-05-19T21:23:17.686Z,3.70
2019-05-19T21:28:22.641Z,3.87
2019-05-19T21:33:27.723Z,4.33
2019-05-19T21:38:32.723Z,3.83
2019-05-19T21:43:37.751Z,4.03
2019-05-19T21:48:42.731Z,4.07
2019-05-19T21:53:48.881Z,3.93
2019-05-19T21:58:53.827Z,3.90
2019-05-19T22:03:58.871Z,3.80
2019-05-19T22:09:05.164Z,4.50
2019-05-19T22:14:10.311Z,4.70
2019-05-19T22:19:17.854Z,4.47
2019-05-19T22:24:22.895Z,4.77
2019-05-19T22:29:31.528Z,3.60
2019-05-19T22:34:37.543Z,4.43
2019-05-19T22:39:42.555Z,3.70
2019-05-19T22:44:47.572Z,4.07
2019-05-19T22:49:52.679Z,4.50
2019-05-19T22:54:57.731Z,4.43
2019-05-19T23:00:02.777Z,4.10
2019-05-19T23:05:10.087Z,4.07
2019-05-19T23:10:16.100Z,4.17
2019-05-19T23:15:21.364Z,3.90
2019-05-19T23:20:26.455Z,3.90
2019-05-19T23:25:31.492Z,4.27
2019-05-19T23:30:36.579Z,4.43
2019-05-19T23:35:41.619Z,5.13
2019-05-19T23:40:46.735Z,5.27
2019-05-19T23:45:51.680Z,5.50
2019-05-19T23:50:56.657Z,6.77
2019-05-19T23:56:01.703Z,5.30
